Cool Ridge Heights, Ohio
Current Conditions -  °F | °C
As of 4:52 PM on Wednesday 22 Oct 2014 (Local Time) from KMFD Reporting Station
Overcast Overcast  
Wind Chill: 45°   Ceiling: 2300
Heat Index: 49°   Visibility: 10mi
Dew Point: 41°   Wind: 10mph
Humidity: 74%   Direction: 360°N
Pressure: 30.25"   Gusts: NA
Location:  40.7762°N, 82.4707°W
Report Text: KMFD 222052Z 36009KT 10SM OVC023 09/05 A3025 RMK AO2 SLP248 T00940050 55005
Loading
Personal Weather Stations






























Interactive Weather Map
Tropical Storm Tracking
New forecast layout! Learn more

10-Day Weather Forecast

Advertisements
Track Severe Weather on mobile